Time;durP1;ratioP1;P1;durP2;ratioP2;P2;SDS_P1;SDS_P2;PMS_P1;PMS_P2;Temp;Humidity;BMP_temperature;BMP_pressure;BME280_temperature;BME280_humidity;BME280_pressure;Samples;Min_cycle;Max_cycle;Signal;HPM_P1;HPM_P2
2023/09/04 00:00:08;;;;;;;9.40;6.00;;;14.40;99.90;;;;;;5132322;27;20051;-67
2023/09/04 00:02:34;;;;;;;9.13;6.10;;;14.40;99.90;;;;;;5114705;27;20051;-67
2023/09/04 00:05:01;;;;;;;8.60;5.82;;;14.40;99.90;;;;;;5114438;27;20039;-67
2023/09/04 00:07:30;;;;;;;6.63;5.88;;;14.40;99.90;;;;;;5114102;27;20051;-67
2023/09/04 00:09:57;;;;;;;7.63;5.93;;;14.40;99.90;;;;;;5114004;27;20043;-67
2023/09/04 00:12:25;;;;;;;8.18;5.65;;;14.30;99.90;;;;;;5132080;27;20055;-66
2023/09/04 00:14:52;;;;;;;8.57;6.50;;;14.30;99.90;;;;;;5091898;28;20081;-66
2023/09/04 00:17:20;;;;;;;8.45;5.97;;;14.30;99.90;;;;;;5093914;27;20492;-67
2023/09/04 00:19:47;;;;;;;9.52;6.90;;;14.20;99.90;;;;;;5077491;28;20400;-67
2023/09/04 00:22:14;;;;;;;8.65;7.05;;;14.20;99.90;;;;;;5076204;28;20048;-67
2023/09/04 00:24:42;;;;;;;8.48;6.78;;;14.20;99.90;;;;;;5093680;27;20082;-67
2023/09/04 00:27:09;;;;;;;8.55;7.40;;;14.20;99.90;;;;;;5075495;28;20450;-68
2023/09/04 00:29:36;;;;;;;9.55;6.88;;;14.20;99.90;;;;;;5076722;27;20048;-66
2023/09/04 00:32:03;;;;;;;12.65;7.65;;;14.10;99.90;;;;;;5098414;27;20396;-64
2023/09/04 00:34:30;;;;;;;8.65;7.22;;;14.10;99.90;;;;;;5076529;28;20445;-67
2023/09/04 00:36:57;;;;;;;10.20;8.00;;;14.10;99.90;;;;;;5093799;28;20047;-66
2023/09/04 00:39:24;;;;;;;9.27;7.80;;;14.10;99.90;;;;;;5093566;27;20044;-66
2023/09/04 00:41:52;;;;;;;10.82;7.72;;;14.10;99.90;;;;;;5101573;27;20051;-66
2023/09/04 00:44:19;;;;;;;11.50;9.27;;;14.00;99.90;;;;;;5132189;27;20046;-67
2023/09/04 00:46:46;;;;;;;11.85;9.63;;;14.00;99.90;;;;;;5113970;27;20043;-66
2023/09/04 00:49:15;;;;;;;10.90;8.52;;;14.00;99.90;;;;;;5112760;27;20035;-65
2023/09/04 00:51:42;;;;;;;11.77;8.75;;;14.00;99.90;;;;;;5132049;27;20071;-67
2023/09/04 00:54:09;;;;;;;11.75;8.85;;;13.90;99.90;;;;;;5113765;27;20104;-66
2023/09/04 00:56:37;;;;;;;11.48;9.43;;;14.00;99.90;;;;;;5113437;28;20134;-65
2023/09/04 00:59:05;;;;;;;13.23;9.30;;;13.90;99.90;;;;;;5068818;28;20049;-66
2023/09/04 01:01:33;;;;;;;10.93;8.52;;;13.90;99.90;;;;;;5054206;28;20090;-66
2023/09/04 01:04:00;;;;;;;9.73;8.73;;;13.90;99.90;;;;;;5088292;28;20504;-66
2023/09/04 01:06:27;;;;;;;10.23;8.65;;;13.90;99.90;;;;;;5071521;28;20423;-66
2023/09/04 01:08:56;;;;;;;14.75;9.35;;;13.80;99.90;;;;;;5077771;28;20049;-67
2023/09/04 01:11:30;;;;;;;10.82;7.93;;;13.80;99.90;;;;;;5086441;28;20048;-66
2023/09/04 01:13:58;;;;;;;11.00;7.75;;;13.80;99.90;;;;;;5079012;28;20036;-66
2023/09/04 01:16:27;;;;;;;10.68;8.20;;;13.80;99.90;;;;;;5070654;28;20055;-66
2023/09/04 01:18:55;;;;;;;10.18;8.43;;;13.80;99.90;;;;;;5055356;28;20049;-66
2023/09/04 01:21:23;;;;;;;11.00;8.52;;;13.70;99.90;;;;;;5055042;28;20049;-67
2023/09/04 01:23:50;;;;;;;10.13;8.45;;;13.70;99.90;;;;;;5087682;28;20047;-66
2023/09/04 01:26:25;;;;;;;13.00;9.93;;;13.70;99.90;;;;;;5077115;28;20523;-66
2023/09/04 01:29:01;;;;;;;15.32;10.30;;;13.70;99.90;;;;;;5086950;28;20056;-65
2023/09/04 01:31:32;;;;;;;16.42;10.88;;;13.60;99.90;;;;;;5078253;28;20516;-65
2023/09/04 01:34:06;;;;;;;12.13;9.60;;;13.60;99.90;;;;;;5078641;28;20052;-66
2023/09/04 01:36:37;;;;;;;12.68;9.65;;;13.60;99.90;;;;;;5080763;28;20446;-66
2023/09/04 01:39:04;;;;;;;13.65;9.43;;;13.60;99.90;;;;;;5082102;28;20044;-65
2023/09/04 01:41:31;;;;;;;11.65;9.20;;;13.50;99.90;;;;;;5082760;28;20052;-66
2023/09/04 01:43:58;;;;;;;11.63;8.65;;;13.50;99.90;;;;;;5082165;28;20056;-66
2023/09/04 01:46:25;;;;;;;9.18;7.35;;;13.50;99.90;;;;;;5056619;28;20052;-65
2023/09/04 01:48:52;;;;;;;8.02;5.13;;;13.50;99.90;;;;;;5082651;28;20044;-66
2023/09/04 01:51:19;;;;;;;12.00;6.07;;;13.50;99.90;;;;;;5073280;28;20063;-66
2023/09/04 01:53:47;;;;;;;9.60;7.20;;;13.40;99.90;;;;;;5082409;28;20044;-67
2023/09/04 01:56:14;;;;;;;9.82;7.63;;;13.40;99.90;;;;;;5078770;28;20401;-66
2023/09/04 01:58:41;;;;;;;8.13;6.53;;;13.40;99.90;;;;;;5092424;28;20102;-67
2023/09/04 02:01:08;;;;;;;11.45;7.28;;;13.40;99.90;;;;;;5093542;28;20040;-66
2023/09/04 02:03:35;;;;;;;11.35;7.55;;;13.40;99.90;;;;;;5092835;28;20040;-66
2023/09/04 02:06:02;;;;;;;9.43;7.43;;;13.40;99.90;;;;;;5094435;28;20044;-66
2023/09/04 02:08:30;;;;;;;10.15;7.28;;;13.40;99.90;;;;;;5095121;28;20145;-67
2023/09/04 02:10:59;;;;;;;10.40;6.95;;;13.30;99.90;;;;;;5094841;28;20506;-66
2023/09/04 02:13:26;;;;;;;11.15;6.65;;;13.30;99.90;;;;;;5070729;28;20048;-66
2023/09/04 02:15:53;;;;;;;11.27;7.60;;;13.30;99.90;;;;;;5075426;28;20488;-66
2023/09/04 02:18:20;;;;;;;11.00;8.32;;;13.30;99.90;;;;;;5072579;28;20041;-66
2023/09/04 02:20:47;;;;;;;10.02;7.68;;;13.20;99.90;;;;;;5074988;28;20044;-66
2023/09/04 02:23:14;;;;;;;10.35;8.25;;;13.20;99.90;;;;;;5073328;28;20048;-67
2023/09/04 02:25:41;;;;;;;8.88;7.32;;;13.10;99.90;;;;;;5086840;28;20109;-66
2023/09/04 02:28:09;;;;;;;13.00;8.57;;;13.10;99.90;;;;;;5072878;28;20044;-66
2023/09/04 02:30:38;;;;;;;11.10;8.85;;;13.10;99.90;;;;;;5073914;28;20052;-66
2023/09/04 02:33:05;;;;;;;10.23;8.05;;;13.10;99.90;;;;;;5073554;28;20067;-66
2023/09/04 02:35:33;;;;;;;11.82;9.55;;;13.00;99.90;;;;;;5074079;28;20045;-66
2023/09/04 02:38:00;;;;;;;10.52;8.50;;;13.00;99.90;;;;;;5084211;28;20059;-66
2023/09/04 02:40:27;;;;;;;10.55;8.27;;;13.10;99.90;;;;;;5072410;28;20044;-67
2023/09/04 02:42:54;;;;;;;12.05;9.07;;;13.00;99.90;;;;;;5073923;28;20098;-67
2023/09/04 02:45:23;;;;;;;9.48;7.85;;;13.00;99.90;;;;;;5074032;28;20040;-67
2023/09/04 02:47:50;;;;;;;11.98;8.13;;;13.00;99.90;;;;;;5073167;28;20056;-67
2023/09/04 02:50:18;;;;;;;10.43;8.23;;;13.00;99.90;;;;;;5073707;28;20051;-67
2023/09/04 02:52:45;;;;;;;9.65;7.55;;;13.00;99.90;;;;;;5074731;28;20055;-66
2023/09/04 02:55:13;;;;;;;9.88;7.03;;;13.00;99.90;;;;;;5073215;28;20106;-67
2023/09/04 02:57:40;;;;;;;10.27;8.20;;;13.00;99.90;;;;;;5075166;28;20556;-67
2023/09/04 03:00:08;;;;;;;8.65;7.05;;;13.00;99.90;;;;;;5092865;28;20438;-67
2023/09/04 03:02:37;;;;;;;11.43;7.88;;;13.00;99.90;;;;;;5070933;28;20040;-67
2023/09/04 03:05:05;;;;;;;9.60;7.60;;;13.00;99.90;;;;;;5073689;28;20123;-67
2023/09/04 03:07:32;;;;;;;10.65;7.32;;;13.00;99.90;;;;;;5074407;28;20096;-66
2023/09/04 03:10:01;;;;;;;9.35;6.57;;;13.00;99.90;;;;;;5074055;28;20040;-67
2023/09/04 03:12:30;;;;;;;11.82;7.28;;;13.00;99.90;;;;;;5071712;28;20423;-67
2023/09/04 03:14:58;;;;;;;10.05;7.72;;;12.90;99.90;;;;;;5073178;28;20044;-67
2023/09/04 03:17:25;;;;;;;10.32;8.20;;;12.90;99.90;;;;;;5071128;28;20481;-67
2023/09/04 03:19:54;;;;;;;9.40;7.15;;;12.90;99.90;;;;;;5073061;28;20550;-66
2023/09/04 03:22:22;;;;;;;9.85;7.65;;;12.80;99.90;;;;;;5070764;28;20045;-66
2023/09/04 03:24:48;;;;;;;8.98;7.15;;;12.80;99.90;;;;;;5073258;28;20060;-66
2023/09/04 03:27:16;;;;;;;10.32;8.57;;;12.80;99.90;;;;;;5074160;28;20052;-66
2023/09/04 03:29:43;;;;;;;10.77;8.25;;;12.80;99.90;;;;;;5074109;28;20056;-67
2023/09/04 03:32:10;;;;;;;8.90;7.32;;;12.80;99.90;;;;;;5072962;28;20049;-66
2023/09/04 03:34:37;;;;;;;12.63;8.27;;;12.80;99.90;;;;;;5072984;28;20378;-65
2023/09/04 03:37:06;;;;;;;10.07;7.55;;;12.70;99.90;;;;;;5073662;28;20098;-65
2023/09/04 03:39:36;;;;;;;9.57;7.32;;;12.70;99.90;;;;;;5072788;28;20075;-67
2023/09/04 03:42:03;;;;;;;9.90;7.40;;;12.80;99.90;;;;;;5072585;28;20052;-67
2023/09/04 03:44:30;;;;;;;8.40;7.22;;;12.70;99.90;;;;;;5073483;28;20048;-66
2023/09/04 03:46:57;;;;;;;8.57;7.00;;;12.70;99.90;;;;;;5076739;28;20556;-66
2023/09/04 03:49:24;;;;;;;9.25;7.30;;;12.70;99.90;;;;;;5092707;28;20040;-67
2023/09/04 03:51:51;;;;;;;10.85;7.13;;;12.70;99.90;;;;;;5092271;28;20043;-65
2023/09/04 03:54:19;;;;;;;12.07;6.53;;;12.60;99.90;;;;;;5092462;28;20097;-66
2023/09/04 03:56:46;;;;;;;8.95;6.57;;;12.70;99.90;;;;;;5094858;27;20439;-67
2023/09/04 03:59:13;;;;;;;8.30;6.47;;;12.70;99.90;;;;;;5131732;27;20491;-66
2023/09/04 04:01:40;;;;;;;9.68;6.60;;;12.70;99.90;;;;;;5132892;27;20054;-69
2023/09/04 04:04:10;;;;;;;8.52;6.13;;;12.70;99.90;;;;;;5132582;27;20517;-68
2023/09/04 04:06:37;;;;;;;8.18;6.15;;;12.60;99.90;;;;;;5114191;27;20046;-68
2023/09/04 04:09:06;;;;;;;11.75;6.00;;;12.70;99.90;;;;;;5114914;27;20058;-68
2023/09/04 04:11:35;;;;;;;8.23;6.50;;;12.60;99.90;;;;;;5113838;27;20060;-68
2023/09/04 04:14:02;;;;;;;8.07;6.88;;;12.60;99.90;;;;;;5132797;27;20078;-68
2023/09/04 04:16:32;;;;;;;9.15;6.00;;;12.60;99.90;;;;;;5114295;27;20047;-68
2023/09/04 04:18:59;;;;;;;7.70;6.05;;;12.60;99.90;;;;;;5113743;27;20092;-67
2023/09/04 04:21:26;;;;;;;7.20;6.15;;;12.60;99.90;;;;;;5132883;27;20043;-68
2023/09/04 04:23:53;;;;;;;7.68;6.47;;;12.60;99.90;;;;;;5132266;27;20050;-67
2023/09/04 04:26:20;;;;;;;7.07;5.90;;;12.50;99.90;;;;;;5113772;27;20498;-68
2023/09/04 04:28:48;;;;;;;7.28;6.05;;;12.50;99.90;;;;;;5132289;27;20047;-68
2023/09/04 04:31:15;;;;;;;8.07;6.43;;;12.50;99.90;;;;;;5113744;27;20066;-68
2023/09/04 04:33:42;;;;;;;7.28;5.07;;;12.50;99.90;;;;;;5092250;28;20119;-64
2023/09/04 04:36:09;;;;;;;6.93;4.75;;;12.40;99.90;;;;;;5093586;27;20055;-65
2023/09/04 04:38:36;;;;;;;4.95;4.10;;;12.50;99.90;;;;;;5092785;27;20039;-66
2023/09/04 04:41:03;;;;;;;5.78;4.40;;;12.40;99.90;;;;;;5093156;27;20040;-65
2023/09/04 04:43:30;;;;;;;6.85;4.50;;;12.40;99.90;;;;;;5093495;28;20051;-66
2023/09/04 04:45:58;;;;;;;7.55;5.80;;;12.40;99.90;;;;;;5092584;28;20192;-65
2023/09/04 04:48:25;;;;;;;6.70;5.18;;;12.40;99.90;;;;;;5094046;28;20071;-66
2023/09/04 04:50:52;;;;;;;6.88;5.35;;;12.40;99.90;;;;;;5105197;28;20043;-66
2023/09/04 04:53:19;;;;;;;7.85;5.05;;;12.40;99.90;;;;;;5091215;28;20483;-67
2023/09/04 04:55:46;;;;;;;6.38;4.90;;;12.50;99.90;;;;;;5106828;28;20506;-66
2023/09/04 04:58:13;;;;;;;7.10;5.35;;;12.60;99.90;;;;;;5114234;27;20051;-66
2023/09/04 05:00:40;;;;;;;7.07;5.60;;;12.60;99.90;;;;;;5091532;28;20071;-68
2023/09/04 05:03:08;;;;;;;9.00;5.25;;;12.60;99.90;;;;;;5090079;28;20437;-68
2023/09/04 05:05:35;;;;;;;7.15;4.97;;;12.70;99.90;;;;;;5109162;28;20085;-70
2023/09/04 05:08:02;;;;;;;8.02;5.60;;;12.70;99.90;;;;;;5103803;28;20097;-72
2023/09/04 05:10:30;;;;;;;5.78;4.18;;;12.70;99.90;;;;;;5093333;28;20043;-74
2023/09/04 05:12:57;;;;;;;6.03;4.47;;;12.80;99.90;;;;;;5099019;28;20071;-68
2023/09/04 05:15:24;;;;;;;7.43;4.68;;;12.80;99.90;;;;;;5117586;28;20494;-68
2023/09/04 05:17:51;;;;;;;5.93;4.30;;;12.80;99.90;;;;;;5111801;27;20052;-68
2023/09/04 05:20:19;;;;;;;6.38;4.30;;;12.80;99.90;;;;;;5098678;28;20043;-67
2023/09/04 05:22:46;;;;;;;7.05;5.28;;;12.90;99.90;;;;;;5090563;27;20104;-69
2023/09/04 05:25:13;;;;;;;5.30;4.10;;;13.00;99.90;;;;;;5104950;27;20048;-70
2023/09/04 05:27:40;;;;;;;7.53;4.63;;;13.00;99.90;;;;;;5096900;28;20058;-69
2023/09/04 05:30:08;;;;;;;7.78;5.15;;;13.10;99.90;;;;;;5113916;27;20040;-70
2023/09/04 05:32:35;;;;;;;7.78;6.15;;;13.20;99.90;;;;;;5112745;27;20054;-70
2023/09/04 05:35:02;;;;;;;8.93;5.68;;;13.30;99.90;;;;;;5116958;27;20521;-72
2023/09/04 05:37:30;;;;;;;7.88;6.03;;;13.30;99.90;;;;;;5093907;28;20047;-70
2023/09/04 05:39:57;;;;;;;8.45;6.70;;;13.40;99.90;;;;;;5091248;28;21188;-70
2023/09/04 05:42:24;;;;;;;10.43;6.60;;;13.60;99.90;;;;;;5111984;27;20051;-70
2023/09/04 05:44:51;;;;;;;6.82;5.28;;;13.60;99.90;;;;;;5091297;28;20055;-69
2023/09/04 05:47:18;;;;;;;7.13;5.30;;;13.70;99.90;;;;;;5090885;27;20419;-71
2023/09/04 05:49:45;;;;;;;11.77;6.45;;;13.70;99.90;;;;;;5094454;28;20059;-71
2023/09/04 05:52:11;;;;;;;9.98;6.70;;;13.80;99.90;;;;;;5096381;28;20047;-70
2023/09/04 05:54:40;;;;;;;7.53;5.97;;;13.90;99.90;;;;;;5090061;28;20043;-68
2023/09/04 05:57:07;;;;;;;8.95;6.43;;;14.00;99.90;;;;;;5114397;27;20055;-69
2023/09/04 05:59:34;;;;;;;8.38;6.78;;;14.10;99.90;;;;;;5108115;27;20071;-69
2023/09/04 06:02:01;;;;;;;7.65;6.13;;;14.10;99.90;;;;;;5103395;27;20283;-68
2023/09/04 06:04:28;;;;;;;9.10;6.05;;;14.20;99.90;;;;;;5118496;27;20044;-70
2023/09/04 06:06:55;;;;;;;9.13;6.65;;;14.30;99.90;;;;;;5104261;27;20050;-70
2023/09/04 06:09:22;;;;;;;9.20;6.00;;;14.50;99.90;;;;;;5112150;27;20051;-68
2023/09/04 06:11:52;;;;;;;8.70;7.10;;;14.50;99.90;;;;;;5113316;28;20066;-68
2023/09/04 06:14:19;;;;;;;9.10;7.28;;;14.70;99.90;;;;;;5096577;28;20471;-66
2023/09/04 06:16:46;;;;;;;12.10;7.75;;;14.80;99.90;;;;;;5096489;28;20048;-67
2023/09/04 06:19:13;;;;;;;11.23;8.52;;;14.90;99.90;;;;;;5097585;27;20093;-68
2023/09/04 06:21:40;;;;;;;13.50;7.82;;;15.10;99.90;;;;;;5097805;28;20043;-68
2023/09/04 06:24:07;;;;;;;11.18;8.05;;;15.30;99.90;;;;;;5093673;27;20044;-68
2023/09/04 06:26:34;;;;;;;12.15;7.60;;;16.00;99.90;;;;;;5112679;28;20044;-69
2023/09/04 06:29:02;;;;;;;10.57;7.07;;;16.90;99.90;;;;;;5107424;28;20046;-67
2023/09/04 06:31:29;;;;;;;9.90;7.55;;;17.90;99.90;;;;;;5093411;28;20142;-67
2023/09/04 06:33:56;;;;;;;11.70;7.10;;;18.50;99.90;;;;;;5096377;27;20089;-69
2023/09/04 06:36:23;;;;;;;8.85;5.80;;;19.10;99.90;;;;;;5115978;27;20039;-68
2023/09/04 06:38:50;;;;;;;7.93;6.47;;;19.50;99.90;;;;;;5111054;27;20059;-69
2023/09/04 06:41:19;;;;;;;7.00;5.80;;;19.90;99.90;;;;;;5087226;27;20168;-67
2023/09/04 06:43:46;;;;;;;8.50;5.38;;;20.60;99.90;;;;;;5095314;28;20097;-68
2023/09/04 06:46:15;;;;;;;6.40;4.97;;;21.20;99.90;;;;;;5094646;27;20040;-68
2023/09/04 06:48:42;;;;;;;8.07;5.03;;;21.70;99.90;;;;;;5085941;27;20054;-69
2023/09/04 06:51:09;;;;;;;7.18;5.15;;;22.20;99.90;;;;;;5134084;27;20547;-67
2023/09/04 06:53:36;;;;;;;6.20;4.53;;;22.50;99.90;;;;;;5133660;27;20043;-68
2023/09/04 06:56:03;;;;;;;10.13;4.80;;;23.10;99.90;;;;;;5096396;27;20448;-69
2023/09/04 06:58:30;;;;;;;6.28;4.93;;;23.90;99.90;;;;;;5125760;27;20051;-69
2023/09/04 07:00:58;;;;;;;7.22;4.20;;;24.30;99.90;;;;;;5082010;28;20044;-68
2023/09/04 07:03:26;;;;;;;7.95;4.88;;;24.70;99.90;;;;;;5112525;28;20050;-68
2023/09/04 07:05:53;;;;;;;10.98;4.30;;;25.00;99.90;;;;;;5114414;28;20056;-69
2023/09/04 07:08:20;;;;;;;10.93;4.30;;;25.20;99.90;;;;;;5088252;27;20047;-69
2023/09/04 07:10:48;;;;;;;7.50;3.70;;;25.70;99.90;;;;;;5131425;27;20039;-68
2023/09/04 07:13:15;;;;;;;7.55;3.67;;;25.80;99.90;;;;;;5095862;28;20048;-68
2023/09/04 07:15:43;;;;;;;6.53;3.13;;;26.40;99.90;;;;;;5113014;28;20051;-69
2023/09/04 07:18:10;;;;;;;4.75;3.28;;;26.80;99.90;;;;;;5113920;28;20047;-68
2023/09/04 07:20:38;;;;;;;3.88;2.83;;;27.10;99.90;;;;;;5095629;28;20487;-69
2023/09/04 07:23:05;;;;;;;5.90;3.03;;;27.10;98.40;;;;;;5093720;28;20044;-70
2023/09/04 07:25:32;;;;;;;7.80;3.22;;;27.50;98.50;;;;;;5097571;27;20043;-70
2023/09/04 07:27:59;;;;;;;3.78;2.85;;;27.80;97.60;;;;;;5078115;28;20084;-70
2023/09/04 07:30:26;;;;;;;5.47;2.92;;;27.90;97.10;;;;;;5118653;27;20127;-69
2023/09/04 07:32:54;;;;;;;4.47;2.80;;;28.10;96.50;;;;;;5111753;28;20488;-69
2023/09/04 07:35:21;;;;;;;4.05;2.22;;;28.30;95.80;;;;;;5093856;28;20056;-69
2023/09/04 07:37:49;;;;;;;4.03;2.78;;;28.60;95.50;;;;;;5095376;27;20051;-68
2023/09/04 07:40:16;;;;;;;5.00;2.42;;;28.60;94.90;;;;;;5112052;27;20048;-69
2023/09/04 07:42:44;;;;;;;3.38;2.25;;;29.00;94.70;;;;;;5132407;27;20437;-68
2023/09/04 07:45:12;;;;;;;4.00;2.75;;;29.20;94.40;;;;;;5114967;27;20456;-70
2023/09/04 07:47:39;;;;;;;5.88;2.80;;;29.50;93.80;;;;;;5132798;27;20490;-71
2023/09/04 07:50:06;;;;;;;4.97;2.47;;;29.60;93.20;;;;;;5114382;27;20051;-71
2023/09/04 07:52:33;;;;;;;3.80;2.72;;;29.80;92.80;;;;;;5114610;27;20080;-69
2023/09/04 07:55:02;;;;;;;4.15;2.60;;;30.00;92.50;;;;;;5114771;27;20059;-69
2023/09/04 07:57:28;;;;;;;3.40;2.92;;;29.60;91.10;;;;;;5110694;28;20100;-69
2023/09/04 07:59:58;;;;;;;3.70;2.72;;;29.90;91.60;;;;;;5113595;28;20083;-69
2023/09/04 08:02:25;;;;;;;3.63;2.53;;;29.90;91.40;;;;;;5076325;28;20052;-69
2023/09/04 08:04:53;;;;;;;4.18;2.42;;;29.90;91.30;;;;;;5107769;27;20053;-69
2023/09/04 08:07:20;;;;;;;3.88;2.28;;;29.60;91.00;;;;;;5132772;27;20491;-69
2023/09/04 08:09:47;;;;;;;3.78;2.53;;;29.70;90.80;;;;;;5114275;27;20050;-68
2023/09/04 08:12:15;;;;;;;7.25;2.75;;;29.80;90.60;;;;;;5131982;27;20047;-69
2023/09/04 08:14:43;;;;;;;3.88;2.35;;;29.60;88.80;;;;;;5114279;27;20042;-70
2023/09/04 08:17:10;;;;;;;3.83;2.45;;;29.50;90.40;;;;;;5132767;27;20440;-70
2023/09/04 08:19:37;;;;;;;3.47;2.25;;;30.00;90.30;;;;;;5096230;27;20044;-70
2023/09/04 08:22:04;;;;;;;3.00;2.15;;;30.20;89.80;;;;;;5094039;28;20125;-70
2023/09/04 08:24:31;;;;;;;5.20;2.33;;;30.30;88.70;;;;;;5105134;28;20052;-70
2023/09/04 08:26:58;;;;;;;3.15;2.10;;;30.50;88.30;;;;;;5112205;28;20421;-70
2023/09/04 08:29:26;;;;;;;3.67;2.03;;;30.60;87.90;;;;;;5092893;28;20108;-70
2023/09/04 08:31:53;;;;;;;5.15;2.35;;;30.80;87.30;;;;;;5111878;28;20451;-70
2023/09/04 08:34:20;;;;;;;4.05;2.00;;;30.70;87.00;;;;;;5077688;28;20048;-70
2023/09/04 08:36:47;;;;;;;2.95;2.03;;;31.00;86.60;;;;;;5076310;28;20052;-70
2023/09/04 08:39:14;;;;;;;3.70;1.85;;;31.00;86.50;;;;;;5093096;28;20040;-70
2023/09/04 08:41:43;;;;;;;3.45;2.33;;;31.10;85.80;;;;;;5113234;27;20115;-70
2023/09/04 08:44:10;;;;;;;3.90;2.13;;;31.10;85.00;;;;;;5132273;27;20406;-70
2023/09/04 08:46:41;;;;;;;3.33;2.00;;;31.00;85.10;;;;;;5112563;27;20410;-70
2023/09/04 08:49:08;;;;;;;3.65;1.80;;;30.50;83.80;;;;;;5131676;27;20047;-70
2023/09/04 08:51:35;;;;;;;5.22;1.90;;;30.50;85.70;;;;;;5113415;27;20054;-70
2023/09/04 08:54:04;;;;;;;5.95;2.08;;;31.10;85.20;;;;;;5131238;27;20054;-70
2023/09/04 08:56:32;;;;;;;4.55;1.70;;;31.20;84.80;;;;;;5131820;27;20047;-70
2023/09/04 08:58:59;;;;;;;2.83;1.70;;;31.40;84.20;;;;;;5094149;28;20055;-70
2023/09/04 09:01:30;;;;;;;2.65;1.83;;;31.60;84.20;;;;;;5093893;28;20067;-70
2023/09/04 09:03:59;;;;;;;3.88;1.60;;;32.10;83.60;;;;;;5111061;28;20055;-70
2023/09/04 09:06:26;;;;;;;3.40;1.55;;;32.10;82.40;;;;;;5093407;28;20044;-70
2023/09/04 09:08:54;;;;;;;2.28;1.58;;;32.60;82.30;;;;;;5076272;28;20056;-70
2023/09/04 09:11:21;;;;;;;2.58;1.48;;;32.50;80.50;;;;;;5110378;28;20051;-70
2023/09/04 09:13:48;;;;;;;2.67;1.52;;;32.10;81.30;;;;;;5112304;28;20044;-68
2023/09/04 09:16:19;;;;;;;5.20;2.08;;;32.10;81.50;;;;;;5106234;28;20051;-69
2023/09/04 09:18:47;;;;;;;3.60;1.77;;;32.30;81.30;;;;;;5075377;28;20180;-70
2023/09/04 09:21:26;;;;;;;3.60;1.60;;;32.30;81.40;;;;;;5092657;28;20040;-70
2023/09/04 09:24:16;;;;;;;4.13;2.10;;;32.60;80.40;;;;;;5085114;28;20519;-69
2023/09/04 09:26:44;;;;;;;2.75;1.67;;;32.70;80.60;;;;;;5101982;28;20047;-69
2023/09/04 09:29:13;;;;;;;4.23;1.73;;;32.60;80.80;;;;;;5086480;28;20063;-71
2023/09/04 09:31:42;;;;;;;2.85;1.55;;;32.40;80.10;;;;;;5090742;28;20040;-69
2023/09/04 09:34:10;;;;;;;3.13;1.50;;;32.40;79.90;;;;;;5091694;28;20100;-69
2023/09/04 09:36:40;;;;;;;2.80;1.40;;;32.50;80.20;;;;;;5101096;28;20051;-70
2023/09/04 09:39:07;;;;;;;2.17;1.42;;;32.60;79.90;;;;;;5089977;28;20483;-70
2023/09/04 09:41:34;;;;;;;3.08;1.42;;;32.10;79.60;;;;;;5089196;28;20548;-70
2023/09/04 09:44:02;;;;;;;3.38;1.63;;;32.10;79.30;;;;;;5089218;28;20051;-70
2023/09/04 09:46:30;;;;;;;2.75;1.58;;;32.30;79.60;;;;;;5102877;28;20499;-70
2023/09/04 09:48:57;;;;;;;3.05;1.48;;;32.40;79.10;;;;;;5090126;28;20044;-69
2023/09/04 09:51:24;;;;;;;2.08;1.45;;;32.90;78.80;;;;;;5102730;28;20066;-69
2023/09/04 09:53:54;;;;;;;2.90;1.50;;;33.20;78.70;;;;;;5102076;28;20052;-69
2023/09/04 09:56:21;;;;;;;4.22;1.70;;;33.40;77.20;;;;;;5089179;28;20115;-69
2023/09/04 09:58:49;;;;;;;4.15;1.83;;;33.50;77.40;;;;;;5110310;27;20047;-70
2023/09/04 10:01:17;;;;;;;2.67;1.40;;;33.40;77.80;;;;;;5108995;28;20052;-70
2023/09/04 10:03:46;;;;;;;3.95;1.98;;;33.60;77.40;;;;;;5093952;28;20062;-70
2023/09/04 10:06:17;;;;;;;3.35;1.60;;;33.50;77.60;;;;;;5105563;28;20512;-70
2023/09/04 10:08:45;;;;;;;4.15;1.73;;;33.20;77.10;;;;;;5086028;27;20059;-70
2023/09/04 10:11:16;;;;;;;3.42;1.88;;;33.60;76.80;;;;;;5089286;28;20039;-70
2023/09/04 10:13:53;;;;;;;4.78;1.95;;;33.70;76.90;;;;;;5093417;28;20476;-70
2023/09/04 10:16:28;;;;;;;3.35;1.55;;;33.40;76.70;;;;;;5114847;28;20058;-70
2023/09/04 10:19:00;;;;;;;3.72;1.63;;;33.10;76.80;;;;;;5100536;27;20076;-71
2023/09/04 10:21:33;;;;;;;4.90;1.85;;;33.40;76.90;;;;;;5107193;27;20049;-71
2023/09/04 10:24:02;;;;;;;2.95;1.90;;;33.20;76.70;;;;;;5111895;27;20084;-71
2023/09/04 10:26:39;;;;;;;3.67;1.75;;;33.10;77.20;;;;;;5100515;27;20048;-70
2023/09/04 10:29:10;;;;;;;5.15;2.10;;;33.40;77.20;;;;;;5094473;28;20487;-70
2023/09/04 10:31:39;;;;;;;3.47;1.83;;;33.50;76.60;;;;;;5104870;27;20212;-70
2023/09/04 10:34:06;;;;;;;3.03;1.52;;;33.90;76.80;;;;;;5097533;28;20047;-69
2023/09/04 10:36:34;;;;;;;2.53;1.60;;;34.10;76.80;;;;;;5104019;27;20048;-70
2023/09/04 10:39:02;;;;;;;2.65;1.80;;;34.50;76.40;;;;;;5090812;27;20130;-70
2023/09/04 10:41:33;;;;;;;2.92;1.60;;;34.30;75.30;;;;;;5094499;28;20463;-71
2023/09/04 10:44:00;;;;;;;3.00;1.38;;;34.10;76.20;;;;;;5108731;28;20047;-71
2023/09/04 10:46:27;;;;;;;3.22;1.90;;;33.90;75.60;;;;;;5101913;27;20051;-71
2023/09/04 10:48:54;;;;;;;2.05;1.50;;;33.80;76.00;;;;;;5092562;28;20143;-70
2023/09/04 10:51:36;;;;;;;3.75;1.85;;;34.00;76.00;;;;;;5105096;28;20052;-71
2023/09/04 10:54:24;;;;;;;4.53;1.63;;;33.80;75.80;;;;;;5113212;27;20050;-70
2023/09/04 10:56:57;;;;;;;4.95;1.75;;;34.10;76.30;;;;;;5100319;28;20074;-70
2023/09/04 10:59:25;;;;;;;3.20;1.63;;;33.80;75.50;;;;;;5090638;28;20043;-70
2023/09/04 11:01:53;;;;;;;3.67;1.70;;;34.20;75.40;;;;;;5095022;28;20060;-70
2023/09/04 11:04:45;;;;;;;2.55;1.25;;;34.10;75.10;;;;;;5101156;28;20472;-69
2023/09/04 11:07:29;;;;;;;3.17;1.35;;;33.60;74.70;;;;;;5087894;28;20052;-70
2023/09/04 11:10:28;;;;;;;2.50;1.40;;;34.30;73.80;;;;;;5109232;28;20058;-70
2023/09/04 11:12:57;;;;;;;4.38;1.10;;;34.40;74.50;;;;;;5104173;27;20047;-69
2023/09/04 11:15:24;;;;;;;3.73;1.33;;;34.50;75.40;;;;;;5087913;28;20483;-69
2023/09/04 11:17:52;;;;;;;2.97;1.27;;;34.50;73.60;;;;;;5111409;28;20105;-69
2023/09/04 11:20:24;;;;;;;2.40;1.17;;;34.80;73.50;;;;;;5088090;28;20412;-69
2023/09/04 11:22:51;;;;;;;3.22;1.50;;;34.10;73.40;;;;;;5089448;28;20043;-70
2023/09/04 11:25:19;;;;;;;2.30;1.30;;;34.60;73.80;;;;;;5092665;27;20377;-69
2023/09/04 11:27:46;;;;;;;2.47;1.50;;;34.40;74.10;;;;;;5105105;27;20500;-69
2023/09/04 11:30:15;;;;;;;2.40;1.10;;;34.90;73.40;;;;;;5099119;27;20099;-70
2023/09/04 11:36:25;;;;;;;2.22;1.27;;;34.50;72.70;;;;;;5127143;27;20111;-70
2023/09/04 11:39:04;;;;;;;3.17;1.40;;;34.20;74.10;;;;;;5094318;28;20047;-69
2023/09/04 11:41:31;;;;;;;1.80;1.08;;;34.50;73.60;;;;;;5093755;28;20047;-69
2023/09/04 11:43:58;;;;;;;2.70;1.35;;;34.30;73.50;;;;;;5099015;28;20047;-70
2023/09/04 11:46:27;;;;;;;4.25;1.42;;;34.20;73.50;;;;;;5092052;28;20112;-70
2023/09/04 11:48:54;;;;;;;3.00;1.30;;;33.90;74.00;;;;;;5088356;28;20719;-70
2023/09/04 11:51:22;;;;;;;1.80;1.17;;;34.50;74.40;;;;;;5091003;28;20044;-71
2023/09/04 11:53:49;;;;;;;2.55;1.40;;;34.60;73.30;;;;;;5089576;28;20483;-70
2023/09/04 11:56:16;;;;;;;3.05;1.77;;;34.40;73.40;;;;;;5109225;28;20085;-68
2023/09/04 11:58:43;;;;;;;4.00;1.30;;;34.00;73.50;;;;;;5105800;28;20059;-69
2023/09/04 12:01:10;;;;;;;2.78;1.10;;;33.90;73.60;;;;;;5089578;28;20108;-69
2023/09/04 12:03:39;;;;;;;3.10;1.60;;;34.20;73.70;;;;;;5089696;28;20039;-70
2023/09/04 12:06:06;;;;;;;5.50;1.50;;;34.10;72.70;;;;;;5108166;28;20055;-70
2023/09/04 12:08:33;;;;;;;2.00;1.20;;;34.50;72.60;;;;;;5109881;27;20777;-70
2023/09/04 12:11:00;;;;;;;2.85;1.23;;;34.70;72.20;;;;;;5105350;28;20044;-70
2023/09/04 12:13:27;;;;;;;2.55;1.42;;;34.60;72.80;;;;;;5088190;28;20391;-68
2023/09/04 12:16:06;;;;;;;3.75;1.30;;;34.60;73.00;;;;;;5098959;27;20055;-68
2023/09/04 12:18:35;;;;;;;2.53;1.20;;;35.10;73.20;;;;;;5085000;28;20092;-69
2023/09/04 12:21:08;;;;;;;3.72;1.50;;;35.10;72.00;;;;;;5110603;28;20134;-68
2023/09/04 12:23:44;;;;;;;2.45;1.38;;;35.40;70.70;;;;;;5109778;27;20044;-68
2023/09/04 12:26:13;;;;;;;2.53;1.27;;;35.60;71.90;;;;;;5092887;28;20079;-69
2023/09/04 12:28:40;;;;;;;2.85;1.00;;;35.70;71.40;;;;;;5107539;28;20044;-68
2023/09/04 12:31:08;;;;;;;2.00;1.13;;;35.50;71.30;;;;;;5107521;27;20043;-69
2023/09/04 12:33:39;;;;;;;4.25;1.10;;;35.90;71.30;;;;;;5110061;27;20040;-69
2023/09/04 12:36:09;;;;;;;1.95;1.13;;;36.10;70.70;;;;;;5093386;28;20511;-69
2023/09/04 12:38:36;;;;;;;3.38;1.20;;;36.40;70.20;;;;;;5091349;28;20039;-69
2023/09/04 12:41:04;;;;;;;2.45;1.38;;;36.50;69.90;;;;;;5104261;27;20437;-68
2023/09/04 12:43:31;;;;;;;4.22;1.20;;;36.20;70.10;;;;;;5092751;28;20043;-69
2023/09/04 12:45:58;;;;;;;3.28;1.35;;;36.00;70.30;;;;;;5093707;28;20055;-68
2023/09/04 12:48:26;;;;;;;2.15;1.00;;;35.80;70.40;;;;;;5093450;27;20495;-70
2023/09/04 12:50:53;;;;;;;2.40;1.27;;;35.60;70.80;;;;;;5093540;27;20500;-68
2023/09/04 12:53:21;;;;;;;2.15;1.10;;;35.40;70.70;;;;;;5076197;28;20055;-69